Time;durP1;ratioP1;P1;durP2;ratioP2;P2;SDS_P1;SDS_P2;PMS_P1;PMS_P2;Temp;Humidity;BMP_temperature;BMP_pressure;BME280_temperature;BME280_humidity;BME280_pressure;Samples;Min_cycle;Max_cycle;Signal;HPM_P1;HPM_P2
2023/04/22 00:01:05;;;;;;;;;;;;;;;19.50;100.00;98075.59;5030772;28;19991;-40
2023/04/22 00:03:32;;;;;;;;;;;;;;;19.69;100.00;98087.97;5030909;28;20038;-40
2023/04/22 00:05:57;;;;;;;;;;;;;;;19.58;100.00;98075.75;5031215;28;19917;-40
2023/04/22 00:08:23;;;;;;;;;;;;;;;19.00;100.00;98104.91;5013082;28;19924;-40
2023/04/22 00:10:48;;;;;;;;;;;;;;;19.60;100.00;98084.31;5030618;28;19916;-40
2023/04/22 00:13:13;;;;;;;;;;;;;;;18.97;100.00;98096.47;5027970;28;20382;-40
2023/04/22 00:15:38;;;;;;;;;;;;;;;19.53;100.00;98077.13;5033573;28;20903;-40
2023/04/22 00:18:04;;;;;;;;;;;;;;;19.20;100.00;98074.56;5034694;28;20433;-40
2023/04/22 00:20:31;;;;;;;;;;;;;;;18.98;100.00;98085.94;5032018;28;20611;-40
2023/04/22 00:22:57;;;;;;;;;;;;;;;18.59;100.00;98098.56;5031838;28;19927;-40
2023/04/22 00:25:22;;;;;;;;;;;;;;;18.32;100.00;98100.75;5010773;28;19925;-40
2023/04/22 00:27:47;;;;;;;;;;;;;;;18.92;100.00;98088.19;5031253;28;19924;-40
2023/04/22 00:30:12;;;;;;;;;;;;;;;19.32;100.00;98071.91;5032138;28;20033;-40
2023/04/22 00:32:38;;;;;;;;;;;;;;;18.96;100.00;98073.97;5031098;28;19929;-40
2023/04/22 00:35:03;;;;;;;;;;;;;;;19.04;100.00;98078.53;5030024;28;20046;-40
2023/04/22 00:37:28;;;;;;;;;;;;;;;18.98;100.00;98082.50;5031159;28;19928;-40
2023/04/22 00:39:54;;;;;;;;;;;;;;;18.53;100.00;98098.22;5030370;28;20308;-40
2023/04/22 00:42:19;;;;;;;;;;;;;;;19.07;100.00;98076.53;5028241;28;19925;-42
2023/04/22 00:44:45;;;;;;;;;;;;;;;18.10;100.00;98114.63;5031986;28;19920;-43
2023/04/22 00:47:11;;;;;;;;;;;;;;;19.33;100.00;98071.75;5032218;28;20361;-44
2023/04/22 00:49:36;;;;;;;;;;;;;;;19.13;100.00;98059.53;5030033;28;19946;-44
2023/04/22 00:52:02;;;;;;;;;;;;;;;18.28;100.00;98094.13;5012083;28;19921;-44
2023/04/22 00:54:27;;;;;;;;;;;;;;;18.02;100.00;98109.16;5030640;28;19925;-44
2023/04/22 00:56:53;;;;;;;;;;;;;;;18.75;100.00;98098.19;5037706;28;19928;-44
2023/04/22 00:59:18;;;;;;;;;;;;;;;18.54;100.00;98089.44;5036699;28;20131;-44
2023/04/22 01:01:43;;;;;;;;;;;;;;;18.47;100.00;98096.09;5026729;28;20224;-43
2023/04/22 01:04:11;;;;;;;;;;;;;;;17.46;100.00;98128.91;5046900;28;19925;-44
2023/04/22 01:06:36;;;;;;;;;;;;;;;17.83;100.00;98118.38;5044561;28;20386;-44
2023/04/22 01:09:01;;;;;;;;;;;;;;;17.64;100.00;98123.28;5019858;28;20020;-44
2023/04/22 01:11:27;;;;;;;;;;;;;;;17.32;100.00;98131.72;5037539;28;19927;-44
2023/04/22 01:13:52;;;;;;;;;;;;;;;17.98;100.00;98119.81;5040469;28;19931;-44
2023/04/22 01:16:17;;;;;;;;;;;;;;;17.87;100.00;98106.78;5039258;28;19917;-44
2023/04/22 01:18:42;;;;;;;;;;;;;;;17.65;100.00;98109.31;5019477;28;19920;-44
2023/04/22 01:21:07;;;;;;;;;;;;;;;17.26;100.00;98126.94;5037928;28;19925;-44
2023/04/22 01:23:33;;;;;;;;;;;;;;;17.85;100.00;98124.28;5036744;28;20818;-44
2023/04/22 01:25:58;;;;;;;;;;;;;;;17.76;100.00;98123.19;5036557;28;19920;-44
2023/04/22 01:28:23;;;;;;;;;;;;;;;16.96;100.00;98138.66;5018300;28;20019;-44
2023/04/22 01:30:48;;;;;;;;;;;;;;;17.58;100.00;98121.13;5035499;28;19920;-43
2023/04/22 01:33:14;;;;;;;;;;;;;;;16.69;100.00;98138.81;5040390;28;20612;-44
2023/04/22 01:35:40;;;;;;;;;;;;;;;16.59;100.00;98148.22;5040605;28;19927;-44
2023/04/22 01:38:06;;;;;;;;;;;;;;;16.40;100.00;98165.09;5039763;28;19924;-44
2023/04/22 01:40:31;;;;;;;;;;;;;;;16.75;100.00;98156.59;5035640;28;19917;-44
2023/04/22 01:42:59;;;;;;;;;;;;;;;16.18;100.00;98165.72;5043762;28;19944;-44
2023/04/22 01:45:25;;;;;;;;;;;;;;;16.81;100.00;98160.53;5018030;28;20109;-44
2023/04/22 01:47:50;;;;;;;;;;;;;;;17.18;100.00;98139.72;5044277;28;19978;-44
2023/04/22 01:50:15;;;;;;;;;;;;;;;16.75;100.00;98167.00;5037530;28;19943;-44
2023/04/22 01:52:40;;;;;;;;;;;;;;;16.40;100.00;98179.84;5036152;28;19921;-44
2023/04/22 01:55:06;;;;;;;;;;;;;;;16.91;100.00;98172.78;5035605;28;19913;-44
2023/04/22 01:57:32;;;;;;;;;;;;;;;16.97;100.00;98163.72;5038948;28;20619;-44
2023/04/22 01:59:57;;;;;;;;;;;;;;;16.78;100.00;98160.75;5037585;28;20332;-45
2023/04/22 02:02:22;;;;;;;;;;;;;;;17.21;100.00;98155.91;5038118;28;19925;-44
2023/04/22 02:04:47;;;;;;;;;;;;;;;16.65;100.00;98163.34;5036881;28;19927;-44
2023/04/22 02:07:13;;;;;;;;;;;;;;;17.78;100.00;98129.09;5038272;28;19920;-44
2023/04/22 02:09:38;;;;;;;;;;;;;;;18.10;100.00;98117.22;5035202;28;19923;-44
2023/04/22 02:12:03;;;;;;;;;;;;;;;17.51;100.00;98113.78;5033109;28;21131;-44
2023/04/22 02:14:28;;;;;;;;;;;;;;;18.03;100.00;98116.84;5035886;28;20285;-44
2023/04/22 02:16:54;;;;;;;;;;;;;;;16.96;100.00;98133.44;5035550;28;20000;-44
2023/04/22 02:19:19;;;;;;;;;;;;;;;16.64;100.00;98156.50;5037553;28;19969;-45
2023/04/22 02:21:44;;;;;;;;;;;;;;;16.37;100.00;98164.47;5047612;28;19920;-44
2023/04/22 02:24:09;;;;;;;;;;;;;;;16.39;100.00;98160.00;5040847;28;19921;-45
2023/04/22 02:26:35;;;;;;;;;;;;;;;17.04;100.00;98159.75;5035346;28;19925;-44
2023/04/22 02:29:00;;;;;;;;;;;;;;;16.38;100.00;98158.34;5040044;28;19921;-44
2023/04/22 02:31:25;;;;;;;;;;;;;;;17.35;100.00;98136.69;5018606;28;19928;-44
2023/04/22 02:33:51;;;;;;;;;;;;;;;17.37;100.00;98140.00;5035440;28;20156;-44
2023/04/22 02:36:16;;;;;;;;;;;;;;;17.68;100.00;98132.53;5036309;28;19917;-44
2023/04/22 02:38:41;;;;;;;;;;;;;;;17.62;100.00;98122.56;5036443;28;19928;-45
2023/04/22 02:41:06;;;;;;;;;;;;;;;17.30;100.00;98128.41;5035555;28;19924;-45
2023/04/22 02:43:31;;;;;;;;;;;;;;;17.38;100.00;98139.09;5035916;28;19917;-44
2023/04/22 02:45:57;;;;;;;;;;;;;;;18.13;100.00;98112.63;5035532;28;19921;-45
2023/04/22 02:48:22;;;;;;;;;;;;;;;18.47;100.00;98098.72;5035028;28;19916;-44
2023/04/22 02:50:47;;;;;;;;;;;;;;;18.53;100.00;98093.84;5034518;28;19921;-44
2023/04/22 02:53:12;;;;;;;;;;;;;;;18.69;100.00;98084.81;5038745;28;19977;-44
2023/04/22 02:55:41;;;;;;;;;;;;;;;18.74;100.00;98080.88;5023630;28;20340;-44
2023/04/22 02:58:07;;;;;;;;;;;;;;;19.02;100.00;98068.22;5037096;28;19917;-44
2023/04/22 03:00:32;;;;;;;;;;;;;;;18.98;100.00;98072.06;5042409;28;20881;-44
2023/04/22 03:02:58;;;;;;;;;;;;;;;18.06;100.00;98095.78;5035452;28;19952;-44
2023/04/22 03:05:23;;;;;;;;;;;;;;;18.24;100.00;98096.13;5036772;28;19925;-45
2023/04/22 03:07:48;;;;;;;;;;;;;;;18.97;100.00;98073.00;5034730;28;19920;-45
2023/04/22 03:10:13;;;;;;;;;;;;;;;18.80;100.00;98064.75;5039344;28;19921;-44
2023/04/22 03:12:40;;;;;;;;;;;;;;;18.44;100.00;98072.88;5033911;28;20058;-44
2023/04/22 03:15:05;;;;;;;;;;;;;;;17.36;100.00;98107.13;5016755;28;19932;-44
2023/04/22 03:17:30;;;;;;;;;;;;;;;16.81;100.00;98124.13;5034901;28;19917;-44
2023/04/22 03:19:56;;;;;;;;;;;;;;;16.19;100.00;98148.38;5038906;28;19935;-44
2023/04/22 03:22:21;;;;;;;;;;;;;;;17.31;100.00;98130.03;5022934;28;20387;-44
2023/04/22 03:24:46;;;;;;;;;;;;;;;16.48;100.00;98146.34;5034998;28;19951;-45
2023/04/22 03:27:12;;;;;;;;;;;;;;;16.52;100.00;98153.00;5034753;28;19917;-45
2023/04/22 03:29:37;;;;;;;;;;;;;;;17.22;100.00;98130.72;5037938;28;20413;-45
2023/04/22 03:32:02;;;;;;;;;;;;;;;15.73;100.00;98157.50;5038685;28;19929;-44
2023/04/22 03:34:27;;;;;;;;;;;;;;;17.32;100.00;98122.13;5038088;28;19983;-44
2023/04/22 03:36:53;;;;;;;;;;;;;;;17.08;100.00;98122.16;5039165;28;19921;-44
2023/04/22 03:39:18;;;;;;;;;;;;;;;16.89;100.00;98129.63;5037659;28;19999;-44
2023/04/22 03:41:43;;;;;;;;;;;;;;;16.12;100.00;98155.75;5038417;28;19921;-44
2023/04/22 03:44:09;;;;;;;;;;;;;;;16.26;100.00;98155.66;5038178;28;19917;-45
2023/04/22 03:46:34;;;;;;;;;;;;;;;16.60;100.00;98135.09;5020821;28;19986;-43
2023/04/22 03:48:59;;;;;;;;;;;;;;;16.67;100.00;98138.94;5038517;28;19913;-44
2023/04/22 03:51:25;;;;;;;;;;;;;;;15.69;100.00;98159.47;5042333;28;20063;-44
2023/04/22 03:53:50;;;;;;;;;;;;;;;15.76;100.00;98144.34;5038380;28;20304;-44
2023/04/22 03:56:15;;;;;;;;;;;;;;;16.57;100.00;98130.13;5037855;28;19916;-45
2023/04/22 03:58:40;;;;;;;;;;;;;;;16.73;100.00;98127.25;5040823;28;19920;-46
2023/04/22 04:01:06;;;;;;;;;;;;;;;16.30;100.00;98118.09;5038555;28;19921;-44
2023/04/22 04:03:31;;;;;;;;;;;;;;;16.41;100.00;98119.97;5038205;28;20094;-45
2023/04/22 04:05:57;;;;;;;;;;;;;;;16.36;100.00;98110.84;5036899;28;19956;-45
2023/04/22 04:08:22;;;;;;;;;;;;;;;16.36;100.00;98116.03;5038269;28;20208;-44
2023/04/22 04:10:47;;;;;;;;;;;;;;;16.45;100.00;98110.19;5036621;28;20007;-44
2023/04/22 04:13:12;;;;;;;;;;;;;;;16.82;100.00;98092.84;5036350;28;20071;-44
2023/04/22 04:15:38;;;;;;;;;;;;;;;16.80;100.00;98092.09;5037484;28;20003;-45
2023/04/22 04:18:03;;;;;;;;;;;;;;;16.70;100.00;98110.13;5038058;28;19990;-45
2023/04/22 04:20:28;;;;;;;;;;;;;;;16.33;100.00;98122.28;5036891;28;19986;-45
2023/04/22 04:22:53;;;;;;;;;;;;;;;16.31;100.00;98114.59;5040344;28;19916;-44
2023/04/22 04:25:20;;;;;;;;;;;;;;;16.48;100.00;98122.97;5043853;28;19929;-44
2023/04/22 04:27:45;;;;;;;;;;;;;;;16.33;100.00;98132.69;5037930;28;20053;-45
2023/04/22 04:30:10;;;;;;;;;;;;;;;16.67;100.00;98094.75;5040931;28;21313;-45
2023/04/22 04:32:36;;;;;;;;;;;;;;;16.60;100.00;98103.91;5040107;28;19978;-44
2023/04/22 04:35:02;;;;;;;;;;;;;;;16.66;100.00;98103.47;5038347;28;20377;-45
2023/04/22 04:37:27;;;;;;;;;;;;;;;17.27;100.00;98081.78;5035152;28;19956;-44
2023/04/22 04:39:52;;;;;;;;;;;;;;;16.75;100.00;98095.97;5034125;28;19923;-44
2023/04/22 04:42:18;;;;;;;;;;;;;;;17.03;100.00;98080.03;5044914;28;19916;-44
2023/04/22 04:44:44;;;;;;;;;;;;;;;16.85;100.00;98069.19;5037120;28;19921;-45
2023/04/22 04:47:09;;;;;;;;;;;;;;;16.47;100.00;98103.94;5037321;28;19963;-45
2023/04/22 04:49:38;;;;;;;;;;;;;;;17.56;100.00;98064.81;5036084;28;19920;-44
2023/04/22 04:52:04;;;;;;;;;;;;;;;17.23;100.00;98070.78;5036865;28;19994;-44
2023/04/22 04:54:29;;;;;;;;;;;;;;;17.11;100.00;98062.09;5037078;28;19924;-44
2023/04/22 04:56:56;;;;;;;;;;;;;;;16.30;100.00;98094.72;5036877;28;20577;-45
2023/04/22 04:59:21;;;;;;;;;;;;;;;16.55;100.00;98074.81;5036366;28;19935;-45
2023/04/22 05:01:46;;;;;;;;;;;;;;;16.63;100.00;98087.28;5038218;28;19921;-45
2023/04/22 05:04:11;;;;;;;;;;;;;;;16.45;100.00;98092.00;5045316;28;19920;-44
2023/04/22 05:06:36;;;;;;;;;;;;;;;17.11;100.00;98056.91;5036261;28;19920;-44
2023/04/22 05:09:02;;;;;;;;;;;;;;;16.74;100.00;98063.94;5035529;28;19935;-44
2023/04/22 05:11:27;;;;;;;;;;;;;;;17.56;100.00;98035.34;5036814;28;19951;-44
2023/04/22 05:13:52;;;;;;;;;;;;;;;16.81;100.00;98057.38;5034691;28;19924;-44
2023/04/22 05:16:17;;;;;;;;;;;;;;;17.19;100.00;98052.91;5037420;28;19936;-44
2023/04/22 05:18:43;;;;;;;;;;;;;;;17.23;100.00;98044.75;5039072;28;20430;-44
2023/04/22 05:21:08;;;;;;;;;;;;;;;17.12;100.00;98042.13;5017778;28;19924;-45
2023/04/22 05:23:33;;;;;;;;;;;;;;;16.87;100.00;98053.50;5038681;28;19928;-44
2023/04/22 05:25:58;;;;;;;;;;;;;;;16.93;100.00;98064.28;5036438;28;19924;-44
2023/04/22 05:28:24;;;;;;;;;;;;;;;17.56;100.00;98059.63;5037244;28;19917;-45
2023/04/22 05:30:49;;;;;;;;;;;;;;;17.41;100.00;98055.56;5041477;28;19925;-44
2023/04/22 05:33:14;;;;;;;;;;;;;;;17.82;100.00;98041.19;5036275;28;19923;-45
2023/04/22 05:35:39;;;;;;;;;;;;;;;17.17;100.00;98060.81;5018265;28;19927;-44
2023/04/22 05:38:05;;;;;;;;;;;;;;;17.19;100.00;98052.91;5036055;28;19972;-45
2023/04/22 05:40:30;;;;;;;;;;;;;;;16.67;100.00;98078.28;5035069;28;20483;-45
2023/04/22 05:42:55;;;;;;;;;;;;;;;17.11;100.00;98076.88;5036254;28;19927;-44
2023/04/22 05:45:21;;;;;;;;;;;;;;;16.77;100.00;98075.88;5038180;28;19921;-44
2023/04/22 05:47:46;;;;;;;;;;;;;;;16.91;100.00;98071.38;5035423;28;19920;-44
2023/04/22 05:50:11;;;;;;;;;;;;;;;17.06;100.00;98042.56;5035157;28;19939;-44
2023/04/22 05:52:36;;;;;;;;;;;;;;;17.13;100.00;98043.78;5035308;28;19967;-45
2023/04/22 05:55:02;;;;;;;;;;;;;;;18.09;100.00;98027.81;5017550;28;19948;-45
2023/04/22 05:57:27;;;;;;;;;;;;;;;17.59;100.00;98044.72;5035689;28;21191;-44
2023/04/22 05:59:52;;;;;;;;;;;;;;;17.54;100.00;98037.25;5034244;28;20360;-44
2023/04/22 06:02:17;;;;;;;;;;;;;;;17.78;100.00;98050.97;5035724;28;20476;-45
2023/04/22 06:04:42;;;;;;;;;;;;;;;17.53;100.00;98052.03;5039428;28;20308;-44
2023/04/22 06:07:08;;;;;;;;;;;;;;;17.83;100.00;98052.44;5035866;28;19995;-44
2023/04/22 06:09:33;;;;;;;;;;;;;;;17.80;100.00;98037.03;5034517;28;19920;-45
2023/04/22 06:11:58;;;;;;;;;;;;;;;17.87;100.00;98049.47;5032625;28;20063;-45
2023/04/22 06:14:23;;;;;;;;;;;;;;;18.04;100.00;98034.31;5035298;28;20007;-44
2023/04/22 06:16:52;;;;;;;;;;;;;;;17.53;100.00;98044.22;5034531;28;20028;-45
2023/04/22 06:19:17;;;;;;;;;;;;;;;18.04;100.00;98031.69;5035873;28;19923;-45
2023/04/22 06:21:43;;;;;;;;;;;;;;;17.64;100.00;98038.19;5034694;28;19925;-44
2023/04/22 06:24:09;;;;;;;;;;;;;;;18.00;100.00;98025.09;5017333;28;20431;-44
2023/04/22 06:26:35;;;;;;;;;;;;;;;17.85;100.00;98040.94;5036661;28;19935;-45
2023/04/22 06:29:01;;;;;;;;;;;;;;;18.43;100.00;98008.66;5035784;28;19967;-45
2023/04/22 06:31:27;;;;;;;;;;;;;;;17.63;100.00;98025.28;5036219;28;19975;-45
2023/04/22 06:33:52;;;;;;;;;;;;;;;18.16;100.00;98023.75;5035580;28;21186;-45
2023/04/22 06:36:17;;;;;;;;;;;;;;;17.80;100.00;98032.63;5034940;28;19921;-45
2023/04/22 06:38:42;;;;;;;;;;;;;;;18.07;100.00;98019.28;5034211;28;20023;-45
2023/04/22 06:41:08;;;;;;;;;;;;;;;18.27;100.00;98015.09;5034557;28;20277;-45
2023/04/22 06:43:33;;;;;;;;;;;;;;;18.43;100.00;98003.44;5035479;28;20411;-45
2023/04/22 06:45:58;;;;;;;;;;;;;;;18.42;100.00;98001.78;5039152;28;19921;-45
2023/04/22 06:48:23;;;;;;;;;;;;;;;18.69;100.00;98010.00;5039081;28;19973;-45
2023/04/22 06:50:48;;;;;;;;;;;;;;;18.57;100.00;98006.59;5040775;28;19925;-45
2023/04/22 06:53:14;;;;;;;;;;;;;;;18.46;100.00;98008.44;5044469;28;19978;-45
2023/04/22 06:55:39;;;;;;;;;;;;;;;18.23;100.00;98000.66;5017610;28;19924;-45
2023/04/22 06:58:04;;;;;;;;;;;;;;;18.77;100.00;98001.56;5034728;28;20014;-45
2023/04/22 07:00:29;;;;;;;;;;;;;;;18.41;100.00;97989.72;5044415;28;20304;-45
2023/04/22 07:02:54;;;;;;;;;;;;;;;19.35;100.00;97973.25;5036973;28;19978;-45
2023/04/22 07:05:20;;;;;;;;;;;;;;;18.95;100.00;97973.16;5039607;28;19913;-44
2023/04/22 07:07:45;;;;;;;;;;;;;;;19.00;100.00;97979.66;5045648;28;19932;-45
2023/04/22 07:10:11;;;;;;;;;;;;;;;19.10;100.00;97971.88;5040793;28;20415;-46
2023/04/22 07:12:36;;;;;;;;;;;;;;;18.62;100.00;97974.94;5023498;28;20175;-44
2023/04/22 07:15:01;;;;;;;;;;;;;;;18.86;100.00;97973.91;5020697;28;19920;-45
2023/04/22 07:17:27;;;;;;;;;;;;;;;19.33;100.00;97966.50;5039692;28;20898;-45
2023/04/22 07:19:52;;;;;;;;;;;;;;;19.20;100.00;97978.00;5043663;28;20423;-45
2023/04/22 07:22:17;;;;;;;;;;;;;;;19.65;100.00;97964.59;5041790;28;20496;-45
2023/04/22 07:24:43;;;;;;;;;;;;;;;19.16;100.00;97966.16;5044410;28;19925;-45
2023/04/22 07:27:08;;;;;;;;;;;;;;;19.73;100.00;97947.44;5042125;28;19967;-45
2023/04/22 07:29:33;;;;;;;;;;;;;;;20.49;100.00;97937.28;5040500;28;19921;-45
2023/04/22 07:31:58;;;;;;;;;;;;;;;19.67;100.00;97961.03;5046739;28;19970;-45
2023/04/22 07:34:23;;;;;;;;;;;;;;;20.31;100.00;97946.75;5019709;28;19931;-45
2023/04/22 07:36:52;;;;;;;;;;;;;;;20.68;100.00;97933.84;5044840;28;20211;-45
2023/04/22 07:39:17;;;;;;;;;;;;;;;19.84;100.00;97945.59;5039841;28;19952;-46
2023/04/22 07:41:42;;;;;;;;;;;;;;;20.18;100.00;97936.56;5041865;28;20646;-45
2023/04/22 07:44:09;;;;;;;;;;;;;;;20.06;100.00;97939.28;5039535;28;19923;-45
2023/04/22 07:46:34;;;;;;;;;;;;;;;20.72;100.00;97931.78;5045825;28;20007;-46
2023/04/22 07:48:59;;;;;;;;;;;;;;;20.92;100.00;97936.03;5048758;28;20239;-45
2023/04/22 07:51:25;;;;;;;;;;;;;;;20.19;100.00;97951.28;5022860;28;20036;-45
2023/04/22 07:53:50;;;;;;;;;;;;;;;21.08;100.00;97935.44;5050028;28;20007;-45
2023/04/22 07:56:15;;;;;;;;;;;;;;;20.87;100.00;97910.28;5043183;28;19920;-45
2023/04/22 07:58:40;;;;;;;;;;;;;;;20.73;100.00;97946.50;5044880;28;20424;-46
2023/04/22 08:01:06;;;;;;;;;;;;;;;20.87;100.00;97939.06;5040645;28;19923;-45
2023/04/22 08:03:31;;;;;;;;;;;;;;;21.19;100.00;97922.19;5040890;28;19929;-45
2023/04/22 08:05:57;;;;;;;;;;;;;;;21.23;100.00;97912.25;5038092;28;19920;-45
2023/04/22 08:08:22;;;;;;;;;;;;;;;22.18;100.00;97907.63;5048835;28;19921;-45
2023/04/22 08:10:47;;;;;;;;;;;;;;;21.97;100.00;97914.00;5041310;28;19924;-45
2023/04/22 08:13:13;;;;;;;;;;;;;;;21.30;100.00;97927.25;5049810;28;20199;-46
2023/04/22 08:15:38;;;;;;;;;;;;;;;20.88;100.00;97919.78;5040503;28;20023;-46
2023/04/22 08:18:04;;;;;;;;;;;;;;;21.15;100.00;97910.34;5043849;28;20019;-45
2023/04/22 08:20:29;;;;;;;;;;;;;;;20.87;100.00;97907.66;5038950;28;20620;-45
2023/04/22 08:22:59;;;;;;;;;;;;;;;21.14;100.00;97916.53;5041224;28;20725;-46
2023/04/22 08:25:24;;;;;;;;;;;;;;;21.23;100.00;97901.75;5039365;28;19924;-46
2023/04/22 08:27:50;;;;;;;;;;;;;;;20.97;99.87;97906.81;5042292;28;19946;-44
2023/04/22 08:30:15;;;;;;;;;;;;;;;21.54;100.00;97891.88;5043092;28;19970;-45
2023/04/22 08:32:40;;;;;;;;;;;;;;;22.13;99.00;97880.06;5043953;28;19921;-47
2023/04/22 08:35:06;;;;;;;;;;;;;;;21.64;97.15;97871.69;5041272;28;20318;-46
2023/04/22 08:37:31;;;;;;;;;;;;;;;22.02;98.00;97882.09;5043889;28;19923;-44
2023/04/22 08:39:57;;;;;;;;;;;;;;;22.13;97.05;97869.56;5020811;28;20438;-45
2023/04/22 08:42:22;;;;;;;;;;;;;;;22.82;96.88;97874.25;5044689;28;19925;-45
2023/04/22 08:44:47;;;;;;;;;;;;;;;22.93;94.43;97859.03;5041830;28;19990;-45
2023/04/22 08:47:13;;;;;;;;;;;;;;;22.27;96.51;97877.91;5026073;28;20116;-46
2023/04/22 08:49:38;;;;;;;;;;;;;;;22.50;97.16;97879.09;5025478;28;19923;-45
2023/04/22 08:52:03;;;;;;;;;;;;;;;23.09;92.87;97845.22;5040478;28;20300;-45
2023/04/22 08:54:29;;;;;;;;;;;;;;;21.80;95.86;97876.28;5038577;28;19920;-47
2023/04/22 08:56:54;;;;;;;;;;;;;;;22.24;97.18;97870.38;5035937;28;20271;-45
2023/04/22 08:59:19;;;;;;;;;;;;;;;22.42;94.53;97858.06;5023099;28;19924;-44
2023/04/22 09:01:45;;;;;;;;;;;;;;;22.58;95.29;97862.59;5021582;28;20321;-46
2023/04/22 09:04:10;;;;;;;;;;;;;;;23.35;93.09;97834.63;5026412;28;19920;-46
2023/04/22 09:06:35;;;;;;;;;;;;;;;23.12;91.47;97829.13;5026717;28;19917;-46
2023/04/22 09:09:01;;;;;;;;;;;;;;;23.25;91.20;97826.06;5010816;28;19931;-46
2023/04/22 09:11:26;;;;;;;;;;;;;;;22.94;91.76;97833.59;5033425;28;19929;-45
2023/04/22 09:13:53;;;;;;;;;;;;;;;24.09;89.60;97811.16;5037712;28;20088;-46
2023/04/22 09:16:18;;;;;;;;;;;;;;;23.72;87.51;97796.66;5037775;28;19943;-47
2023/04/22 09:18:44;;;;;;;;;;;;;;;24.10;89.31;97815.44;5038966;28;20372;-46
2023/04/22 09:21:10;;;;;;;;;;;;;;;24.28;89.00;97810.00;5037371;28;19927;-46
2023/04/22 09:23:45;;;;;;;;;;;;;;;24.05;87.29;97799.34;5036256;28;19920;-48
2023/04/22 09:26:10;;;;;;;;;;;;;;;24.38;86.67;97799.31;5016171;28;19921;-46
2023/04/22 09:28:36;;;;;;;;;;;;;;;23.61;86.98;97812.72;5040503;28;20308;-46
2023/04/22 09:31:01;;;;;;;;;;;;;;;23.89;86.02;97788.81;5032471;28;20850;-45
2023/04/22 09:33:26;;;;;;;;;;;;;;;23.74;84.31;97792.09;5038124;28;19948;-43
2023/04/22 09:35:52;;;;;;;;;;;;;;;24.35;85.81;97797.03;5039508;28;19928;-46
2023/04/22 09:38:17;;;;;;;;;;;;;;;24.36;83.93;97780.25;5041765;28;20832;-47
2023/04/22 09:40:42;;;;;;;;;;;;;;;23.44;84.94;97780.31;5021242;28;20029;-47
2023/04/22 09:43:08;;;;;;;;;;;;;;;24.93;85.22;97771.41;5041285;28;20347;-46
2023/04/22 09:45:36;;;;;;;;;;;;;;;24.28;84.29;97775.00;5035343;28;20389;-44
2023/04/22 09:48:01;;;;;;;;;;;;;;;24.98;83.06;97769.91;5040751;28;20173;-44
2023/04/22 09:50:27;;;;;;;;;;;;;;;24.51;82.87;97775.97;5043327;28;20586;-45
2023/04/22 09:52:59;;;;;;;;;;;;;;;25.56;79.63;97754.63;5039405;28;19936;-46
2023/04/22 09:55:25;;;;;;;;;;;;;;;25.47;80.32;97768.88;5037326;28;21940;-44
2023/04/22 09:57:51;;;;;;;;;;;;;;;24.66;81.36;97783.19;5034396;28;19920;-46
2023/04/22 10:00:17;;;;;;;;;;;;;;;24.59;82.90;97783.84;5040085;28;20643;-44
2023/04/22 10:02:42;;;;;;;;;;;;;;;24.86;81.11;97771.28;5042258;28;19924;-43
2023/04/22 10:05:08;;;;;;;;;;;;;;;25.04;81.69;97769.25;5026300;28;20266;-45
2023/04/22 10:07:34;;;;;;;;;;;;;;;24.47;81.46;97776.44;5037577;28;20851;-44
2023/04/22 10:09:59;;;;;;;;;;;;;;;24.74;82.21;97772.63;5038270;28;19920;-40
2023/04/22 10:12:25;;;;;;;;;;;;;;;24.56;81.38;97771.03;5017105;28;19921;-40
2023/04/22 10:14:50;;;;;;;;;;;;;;;24.62;81.81;97749.28;5020081;28;19956;-39
2023/04/22 10:17:15;;;;;;;;;;;;;;;25.36;78.30;97735.00;5039558;28;19917;-39
2023/04/22 10:19:40;;;;;;;;;;;;;;;25.01;81.59;97761.66;5034702;28;19920;-39
2023/04/22 10:22:06;;;;;;;;;;;;;;;24.78;81.60;97747.59;5040081;28;19963;-40
2023/04/22 10:24:35;;;;;;;;;;;;;;;25.72;79.23;97735.25;5037237;28;19964;-40
2023/04/22 10:27:05;;;;;;;;;;;;;;;25.85;79.98;97740.75;5040966;28;20535;-40
2023/04/22 10:29:41;;;;;;;;;;;;;;;25.28;80.40;97743.78;5034167;28;20473;-39
2023/04/22 10:32:09;;;;;;;;;;;;;;;25.83;78.91;97732.19;5035417;28;19931;-40
2023/04/22 10:34:35;;;;;;;;;;;;;;;26.25;77.75;97719.50;5035506;28;19928;-40
2023/04/22 10:37:02;;;;;;;;;;;;;;;26.87;77.01;97708.59;5035661;28;20024;-40
2023/04/22 10:39:28;;;;;;;;;;;;;;;24.77;81.52;97745.94;5020317;28;19943;-40
2023/04/22 10:41:55;;;;;;;;;;;;;;;25.34;78.37;97714.13;5038304;28;21051;-39
2023/04/22 10:44:21;;;;;;;;;;;;;;;26.32;77.57;97703.75;5044396;28;19917;-40
2023/04/22 10:46:50;;;;;;;;;;;;;;;25.56;78.99;97719.56;5037548;28;19921;-40
2023/04/22 10:49:20;;;;;;;;;;;;;;;26.03;76.76;97711.47;5037928;28;20003;-40
2023/04/22 10:51:55;;;;;;;;;;;;;;;26.59;75.57;97711.06;5038197;28;19921;-39
2023/04/22 10:54:26;;;;;;;;;;;;;;;25.54;74.73;97713.63;5042509;28;19920;-39
2023/04/22 10:57:07;;;;;;;;;;;;;;;26.15;76.78;97713.66;5037636;28;19927;-40
2023/04/22 10:59:50;;;;;;;;;;;;;;;26.41;74.91;97700.03;5038140;28;19931;-39
2023/04/22 11:02:15;;;;;;;;;;;;;;;26.14;73.77;97686.47;5040001;28;19920;-39
2023/04/22 11:04:41;;;;;;;;;;;;;;;27.89;71.66;97675.88;5041348;28;19924;-40
2023/04/22 11:07:25;;;;;;;;;;;;;;;26.04;70.46;97680.59;5040374;28;19916;-39
2023/04/22 11:10:06;;;;;;;;;;;;;;;25.61;69.30;97682.94;5038626;28;19931;-39
2023/04/22 11:12:34;;;;;;;;;;;;;;;26.41;67.97;97657.78;5039024;28;19971;-40
2023/04/22 11:15:15;;;;;;;;;;;;;;;26.73;66.42;97653.97;5039241;28;19921;-40
2023/04/22 11:17:45;;;;;;;;;;;;;;;27.88;66.39;97658.38;5039973;28;20027;-39
2023/04/22 11:20:11;;;;;;;;;;;;;;;26.97;68.83;97681.88;5039913;28;20574;-39
2023/04/22 11:22:37;;;;;;;;;;;;;;;25.80;66.56;97664.00;5042277;28;19963;-40
2023/04/22 11:25:03;;;;;;;;;;;;;;;27.41;67.72;97658.97;5021425;28;19956;-40
2023/04/22 11:27:29;;;;;;;;;;;;;;;28.16;62.79;97639.03;5037859;28;19916;-40
2023/04/22 11:30:00;;;;;;;;;;;;;;;26.44;66.30;97666.16;5038827;28;19921;-40
2023/04/22 11:32:26;;;;;;;;;;;;;;;26.79;62.86;97644.47;5039939;28;19925;-39
2023/04/22 11:34:51;;;;;;;;;;;;;;;27.03;65.57;97670.56;5040639;28;19921;-40
2023/04/22 11:37:19;;;;;;;;;;;;;;;26.55;65.02;97662.28;5038973;28;20549;-40
2023/04/22 11:39:45;;;;;;;;;;;;;;;26.48;66.58;97672.72;5038610;28;19928;-39
2023/04/22 11:42:13;;;;;;;;;;;;;;;28.73;62.36;97631.78;5021352;28;19925;-40
2023/04/22 11:44:38;;;;;;;;;;;;;;;27.18;59.46;97635.34;5041148;28;20449;-39
2023/04/22 11:47:04;;;;;;;;;;;;;;;27.26;65.69;97659.06;5039744;28;19920;-39
2023/04/22 11:49:31;;;;;;;;;;;;;;;27.56;62.59;97648.34;5039959;28;20369;-39
2023/04/22 11:51:57;;;;;;;;;;;;;;;27.22;65.02;97660.44;5028095;28;19987;-39
2023/04/22 11:54:32;;;;;;;;;;;;;;;28.57;61.14;97630.31;5024250;28;20003;-39
2023/04/22 11:57:01;;;;;;;;;;;;;;;28.27;57.98;97627.09;5038817;28;19924;-39
2023/04/22 11:59:27;;;;;;;;;;;;;;;26.70;63.77;97649.84;5040923;28;20873;-40
2023/04/22 12:01:52;;;;;;;;;;;;;;;27.04;65.90;97650.25;5040687;28;19925;-40
2023/04/22 12:04:20;;;;;;;;;;;;;;;28.40;63.68;97635.09;5041055;28;19950;-39
2023/04/22 12:06:45;;;;;;;;;;;;;;;29.63;64.29;97634.19;5038399;28;19951;-40
2023/04/22 12:09:11;;;;;;;;;;;;;;;29.92;54.76;97601.13;5038352;28;20396;-40
2023/04/22 12:11:37;;;;;;;;;;;;;;;29.36;53.50;97605.84;5038687;28;19976;-40
2023/04/22 12:14:05;;;;;;;;;;;;;;;30.08;53.15;97605.19;5041395;28;20590;-40
2023/04/22 12:16:38;;;;;;;;;;;;;;;30.54;54.68;97604.25;5039133;28;19917;-40
2023/04/22 12:19:03;;;;;;;;;;;;;;;30.02;57.78;97631.56;5047936;28;20336;-40
2023/04/22 12:21:28;;;;;;;;;;;;;;;30.99;54.21;97599.75;5038063;28;19921;-40
2023/04/22 12:23:54;;;;;;;;;;;;;;;29.78;54.67;97600.34;5038893;28;20054;-40
2023/04/22 12:26:20;;;;;;;;;;;;;;;29.50;54.12;97601.38;5036660;28;19928;-40
2023/04/22 12:28:46;;;;;;;;;;;;;;;29.19;56.43;97621.34;5045162;28;19932;-40
2023/04/22 12:31:12;;;;;;;;;;;;;;;28.25;53.82;97614.03;5040109;28;19921;-40
2023/04/22 12:33:37;;;;;;;;;;;;;;;28.57;60.36;97632.94;5020455;28;20102;-40